Terminal Aerodrome Forecast
Issued by NWS Wilmington, OH

Current Version | Previous Version | Text Only | Print | Product List | Glossary Off
Versions: 1 2 3 4 5 6 7 8 9 10 11 12 13 14 15 16 17 18 19 20

000
FTUS41 KILN 301000 AAA
TAFILN
TAF AMD
KILN 301044Z 3011/0106 35009KT P6SM VCSH OVC080
     FM301400 35011KT P6SM BKN050
     FM301700 35012G18KT P6SM OVC040
      TEMPO 3022/0102 5SM -SHRA BR OVC035
     FM010200 35009KT P6SM OVC035
     FM010500 34010KT P6SM OVC018=

USA.gov is the U.S. government's official web portal to all federal, state and local government web resources and services.